Briefing drone pour Saint-alban-leysse

Rechercher une autre localisation

Conditions de vol :


Nous sommes le : Mardi 09 mars 2021
Il est 06:30 UTC (07:30 LT)

Lever de soleil : 05:32 UTC (06:32 LT)
Coucher de soleil : 18:00 UTC (19:00 LT)

Météo

L'essentiel des conditions de vol

VIGILANCE MÉTÉO FRANCE - Savoie (73)
Pas de vigilances particulieres
CARTE TEMSI
CARTES DES FRONTS
METAR de LFLB
LFLB 090600Z AUTO 35009KT 9999 OVC088 05/03 Q1016 NOSIG

Date d'émission: 09/03/2021
Heure d'émission: 06:00 UTC
Vent: 350° pour 9 KT (17 km/h)
Visibilité horizontale: > 10 km
Plafond :
- Couvert à 8800ft (2682m)
Température: 5 °C
Point de rosée: 3 °C
Humidité: 87%
Pression (QNH): 1016 hPa
Conditions: Pas de changement dans les 2 heures (NOSIG)
TAF de LFLB
LFLB 090200Z 0903/1003 36008KT CAVOK

Conditions prévues :

Heure d'émission : Bulletin éffectué le 09 à 03:00 UTC
Prévision : Valide du 09 a 03:00 UTC au 10 a 03:00 UTC
Vent : 360° pour 8 KT (15 km/h)
Visibilité : > 10 km
WEBCAM POUR SAINT-ALBAN-LEYSSE

Réglementation

Voler en sécurité

CARTES AERONAUTIQUE 1/500.000
CARTES VAC (LFLB)
SUP AIP




Chargement des AIP...
NOTAM (SAINT-ALBAN-LEYSSE + Terrain à proximité / FIR )




Chargement des NOTAMS...
CONTACT PREFECTURE 73


Avertissement : Les données mises à disposition sont indicatives. Oxygène Drone ne pourra être tenu responsable de dégâts causés aux biens et aux personnes.